PWSweather.com
Personal Weather Stations
Station Observations
NOCONAWX
Sherman Street, Nocona, TX 76255

Sherman StreetNocona, TX 76255

Lat: 33.7851771, Lon: -97.7248693

Elevation: 981

Station Type: Davis 6152

http://www.noconaweather.com

High Low Average
Temperature 85.6°F29.8°F 59.7°F15.4°F 72.9°F22.7°F
Dew Point 63.1°F17.3°F 50.9°F10.5°F 57.9°F14.4°F
Winds 7.0 mph SE11.3 mph SE Calm Calm 3.7 mph 6.0 mph
Wind Gusts 22.0 mph35.4 mph -- 8.7 mph14.0 mph
Humidity 86% 40% 61%
Pressure 29.91 in1012.90 in 29.61 in1002.70 in -
Precipitation 0.16 in4.10 in - -
Hour Temp Dew Point Humidity Winds Wind Gusts Pressure Precip Precip Rate Daily Precip Total
12:00 AM 63.6°F17.6°C 52.8°F11.6°C 68% Calm Calm 1.0 mph1.6 kmh 29.91 in1012.9 mb 0.00 in0.0 mm 0.00 in/hr0.0 mm/hr 0.00 in0.0 mm
12:15 AM 63.2°F17.3°C 52.5°F11.4°C 68% Calm Calm 1.0 mph1.6 kmh 29.91 in1012.9 mb 0.00 in0.0 mm 0.00 in/hr0.0 mm/hr 0.00 in0.0 mm
12:30 AM 63.3°F17.4°C 52.6°F11.4°C 68% Calm Calm 1.0 mph1.6 kmh 29.91 in1012.9 mb 0.00 in0.0 mm 0.00 in/hr0.0 mm/hr 0.00 in0.0 mm
12:45 AM 63.0°F17.2°C 52.3°F11.3°C 68% Calm Calm 3.0 mph4.8 kmh 29.91 in1012.9 mb 0.00 in0.0 mm 0.00 in/hr0.0 mm/hr 0.00 in0.0 mm
01:00 AM 62.5°F16.9°C 52.2°F11.2°C 69% Calm Calm -- 29.90 in1012.5 mb 0.00 in0.0 mm 0.00 in/hr0.0 mm/hr 0.00 in0.0 mm
01:15 AM 61.7°F16.5°C 52.2°F11.2°C 71% Calm Calm -- 29.90 in1012.5 mb 0.00 in0.0 mm 0.00 in/hr0.0 mm/hr 0.00 in0.0 mm
01:30 AM 60.9°F16.1°C 51.8°F11.0°C 72% Calm Calm -- 29.90 in1012.5 mb 0.00 in0.0 mm 0.00 in/hr0.0 mm/hr 0.00 in0.0 mm
01:45 AM 61.5°F16.4°C 51.6°F10.9°C 70% Calm Calm 2.0 mph3.2 kmh 29.90 in1012.5 mb 0.00 in0.0 mm 0.00 in/hr0.0 mm/hr 0.00 in0.0 mm
02:00 AM 61.6°F16.4°C 51.3°F10.7°C 69% Calm Calm 1.0 mph1.6 kmh 29.89 in1012.2 mb 0.00 in0.0 mm 0.00 in/hr0.0 mm/hr 0.00 in0.0 mm
02:15 AM 61.1°F16.2°C 51.2°F10.7°C 70% Calm Calm -- 29.89 in1012.2 mb 0.00 in0.0 mm 0.00 in/hr0.0 mm/hr 0.00 in0.0 mm
02:30 AM 61.2°F16.2°C 50.9°F10.5°C 69% Calm Calm -- 29.89 in1012.2 mb 0.00 in0.0 mm 0.00 in/hr0.0 mm/hr 0.00 in0.0 mm
02:45 AM 60.7°F15.9°C 50.9°F10.5°C 70% Calm Calm 1.0 mph1.6 kmh 29.88 in1011.9 mb 0.00 in0.0 mm 0.00 in/hr0.0 mm/hr 0.00 in0.0 mm
03:00 AM 60.5°F15.8°C 51.0°F10.6°C 71% Calm Calm 2.0 mph3.2 kmh 29.88 in1011.9 mb 0.00 in0.0 mm 0.00 in/hr0.0 mm/hr 0.00 in0.0 mm
03:15 AM 60.0°F15.6°C 51.3°F10.7°C 73% Calm Calm -- 29.87 in1011.5 mb 0.00 in0.0 mm 0.00 in/hr0.0 mm/hr 0.00 in0.0 mm
03:30 AM 59.7°F15.4°C 51.4°F10.8°C 74% Calm Calm 1.0 mph1.6 kmh 29.87 in1011.5 mb 0.00 in0.0 mm 0.00 in/hr0.0 mm/hr 0.00 in0.0 mm
03:45 AM 60.5°F15.8°C 52.2°F11.2°C 74% Calm Calm 2.0 mph3.2 kmh 29.87 in1011.5 mb 0.00 in0.0 mm 0.00 in/hr0.0 mm/hr 0.00 in0.0 mm
04:00 AM 61.9°F16.6°C 53.1°F11.7°C 73% 1.0 mph SE1.6 kmh SE 4.0 mph6.4 kmh 29.86 in1011.2 mb 0.00 in0.0 mm 0.00 in/hr0.0 mm/hr 0.00 in0.0 mm
04:15 AM 62.1°F16.7°C 54.1°F12.3°C 75% 1.0 mph SE1.6 kmh SE 3.0 mph4.8 kmh 29.86 in1011.2 mb 0.00 in0.0 mm 0.00 in/hr0.0 mm/hr 0.00 in0.0 mm
04:30 AM 62.2°F16.8°C 54.5°F12.5°C 76% 2.0 mph SSE3.2 kmh SSE 5.0 mph8.0 kmh 29.86 in1011.2 mb 0.00 in0.0 mm 0.00 in/hr0.0 mm/hr 0.00 in0.0 mm
04:45 AM 62.2°F16.8°C 55.3°F12.9°C 78% 2.0 mph SE3.2 kmh SE 4.0 mph6.4 kmh 29.86 in1011.2 mb 0.00 in0.0 mm 0.00 in/hr0.0 mm/hr 0.00 in0.0 mm
05:00 AM 61.6°F16.4°C 55.4°F13.0°C 80% Calm Calm 3.0 mph4.8 kmh 29.86 in1011.2 mb 0.00 in0.0 mm 0.00 in/hr0.0 mm/hr 0.00 in0.0 mm
05:15 AM 61.0°F16.1°C 55.5°F13.1°C 82% Calm Calm 2.0 mph3.2 kmh 29.86 in1011.2 mb 0.00 in0.0 mm 0.00 in/hr0.0 mm/hr 0.00 in0.0 mm
05:30 AM 61.3°F16.3°C 56.1°F13.4°C 83% 1.0 mph SSE1.6 kmh SSE 4.0 mph6.4 kmh 29.85 in1010.8 mb 0.00 in0.0 mm 0.00 in/hr0.0 mm/hr 0.00 in0.0 mm
05:45 AM 61.7°F16.5°C 56.5°F13.6°C 83% 1.0 mph SE1.6 kmh SE 4.0 mph6.4 kmh 29.85 in1010.8 mb 0.00 in0.0 mm 0.00 in/hr0.0 mm/hr 0.00 in0.0 mm
06:00 AM 61.5°F16.4°C 56.3°F13.5°C 83% 1.0 mph SE1.6 kmh SE 4.0 mph6.4 kmh 29.85 in1010.8 mb 0.00 in0.0 mm 0.00 in/hr0.0 mm/hr 0.00 in0.0 mm
06:15 AM 61.4°F16.3°C 56.2°F13.4°C 83% 1.0 mph SSE1.6 kmh SSE 4.0 mph6.4 kmh 29.86 in1011.2 mb 0.00 in0.0 mm 0.00 in/hr0.0 mm/hr 0.00 in0.0 mm
06:30 AM 60.9°F16.1°C 56.0°F13.3°C 84% 1.0 mph SE1.6 kmh SE 2.0 mph3.2 kmh 29.86 in1011.2 mb 0.00 in0.0 mm 0.00 in/hr0.0 mm/hr 0.00 in0.0 mm
06:45 AM 60.1°F15.6°C 55.9°F13.3°C 86% Calm Calm 4.0 mph6.4 kmh 29.86 in1011.2 mb 0.00 in0.0 mm 0.00 in/hr0.0 mm/hr 0.00 in0.0 mm
07:00 AM 60.5°F15.8°C 56.3°F13.5°C 86% 1.0 mph SE1.6 kmh SE 4.0 mph6.4 kmh 29.86 in1011.2 mb 0.00 in0.0 mm 0.00 in/hr0.0 mm/hr 0.00 in0.0 mm
07:15 AM 61.1°F16.2°C 56.6°F13.7°C 85% 2.0 mph SE3.2 kmh SE 5.0 mph8.0 kmh 29.86 in1011.2 mb 0.00 in0.0 mm 0.00 in/hr0.0 mm/hr 0.00 in0.0 mm
07:30 AM 62.0°F16.7°C 56.8°F13.8°C 83% 2.0 mph SSE3.2 kmh SSE 3.0 mph4.8 kmh 29.86 in1011.2 mb 0.00 in0.0 mm 0.00 in/hr0.0 mm/hr 0.00 in0.0 mm
07:45 AM 63.4°F17.4°C 57.5°F14.2°C 81% 1.0 mph SSE1.6 kmh SSE 3.0 mph4.8 kmh 29.87 in1011.5 mb 0.00 in0.0 mm 0.00 in/hr0.0 mm/hr 0.00 in0.0 mm
08:00 AM 64.9°F18.3°C 58.2°F14.6°C 79% 2.0 mph SSE3.2 kmh SSE 4.0 mph6.4 kmh 29.87 in1011.5 mb 0.00 in0.0 mm 0.00 in/hr0.0 mm/hr 0.00 in0.0 mm
08:15 AM 66.3°F19.1°C 58.5°F14.7°C 76% 2.0 mph SSE3.2 kmh SSE 8.0 mph12.9 kmh 29.87 in1011.5 mb 0.00 in0.0 mm 0.00 in/hr0.0 mm/hr 0.00 in0.0 mm
08:30 AM 67.9°F19.9°C 59.3°F15.2°C 74% 3.0 mph SE4.8 kmh SE 7.0 mph11.3 kmh 29.87 in1011.5 mb 0.00 in0.0 mm 0.00 in/hr0.0 mm/hr 0.00 in0.0 mm
08:45 AM 69.1°F20.6°C 59.7°F15.4°C 72% 4.0 mph SSE6.4 kmh SSE 11.0 mph17.7 kmh 29.87 in1011.5 mb 0.00 in0.0 mm 0.00 in/hr0.0 mm/hr 0.00 in0.0 mm
09:00 AM 70.3°F21.3°C 60.1°F15.6°C 70% 4.0 mph SSE6.4 kmh SSE 12.0 mph19.3 kmh 29.87 in1011.5 mb 0.00 in0.0 mm 0.00 in/hr0.0 mm/hr 0.00 in0.0 mm
09:15 AM 71.2°F21.8°C 60.5°F15.8°C 69% 5.0 mph S8.0 kmh S 10.0 mph16.1 kmh 29.87 in1011.5 mb 0.00 in0.0 mm 0.00 in/hr0.0 mm/hr 0.00 in0.0 mm
09:30 AM 72.3°F22.4°C 61.1°F16.2°C 68% 5.0 mph S8.0 kmh S 11.0 mph17.7 kmh 29.87 in1011.5 mb 0.00 in0.0 mm 0.00 in/hr0.0 mm/hr 0.00 in0.0 mm
09:45 AM 72.7°F22.6°C 61.1°F16.2°C 67% 6.0 mph S9.7 kmh S 13.0 mph20.9 kmh 29.88 in1011.9 mb 0.00 in0.0 mm 0.00 in/hr0.0 mm/hr 0.00 in0.0 mm
10:00 AM 73.2°F22.9°C 61.2°F16.2°C 66% 5.0 mph S8.0 kmh S 11.0 mph17.7 kmh 29.88 in1011.9 mb 0.00 in0.0 mm 0.00 in/hr0.0 mm/hr 0.00 in0.0 mm
10:15 AM 74.0°F23.3°C 61.5°F16.4°C 65% 6.0 mph SSE9.7 kmh SSE 14.0 mph22.5 kmh 29.86 in1011.2 mb 0.00 in0.0 mm 0.00 in/hr0.0 mm/hr 0.00 in0.0 mm
10:30 AM 75.0°F23.9°C 62.0°F16.7°C 64% 5.0 mph S8.0 kmh S 10.0 mph16.1 kmh 29.86 in1011.2 mb 0.00 in0.0 mm 0.00 in/hr0.0 mm/hr 0.00 in0.0 mm
10:45 AM 75.4°F24.1°C 61.5°F16.4°C 62% 6.0 mph S9.7 kmh S 14.0 mph22.5 kmh 29.85 in1010.8 mb 0.00 in0.0 mm 0.00 in/hr0.0 mm/hr 0.00 in0.0 mm
11:00 AM 76.4°F24.7°C 62.0°F16.7°C 61% 6.0 mph S9.7 kmh S 14.0 mph22.5 kmh 29.85 in1010.8 mb 0.00 in0.0 mm 0.00 in/hr0.0 mm/hr 0.00 in0.0 mm
11:15 AM 77.1°F25.1°C 63.1°F17.3°C 62% 7.0 mph S11.3 kmh S 14.0 mph22.5 kmh 29.85 in1010.8 mb 0.00 in0.0 mm 0.00 in/hr0.0 mm/hr 0.00 in0.0 mm
11:30 AM 77.6°F25.3°C 62.6°F17.0°C 60% 7.0 mph S11.3 kmh S 15.0 mph24.1 kmh 29.85 in1010.8 mb 0.00 in0.0 mm 0.00 in/hr0.0 mm/hr 0.00 in0.0 mm
11:45 AM 78.3°F25.7°C 62.8°F17.1°C 59% 6.0 mph S9.7 kmh S 10.0 mph16.1 kmh 29.84 in1010.5 mb 0.00 in0.0 mm 0.00 in/hr0.0 mm/hr 0.00 in0.0 mm
12:00 PM 78.8°F26.0°C 62.8°F17.1°C 58% 7.0 mph S11.3 kmh S 10.0 mph16.1 kmh 29.83 in1010.2 mb 0.00 in0.0 mm 0.00 in/hr0.0 mm/hr 0.00 in0.0 mm
12:15 PM 79.4°F26.3°C 62.8°F17.1°C 57% 7.0 mph SSW11.3 kmh SSW 12.0 mph19.3 kmh 29.82 in1009.8 mb 0.00 in0.0 mm 0.00 in/hr0.0 mm/hr 0.00 in0.0 mm
12:30 PM 80.5°F26.9°C 62.3°F16.8°C 54% 6.0 mph SE9.7 kmh SE 14.0 mph22.5 kmh 29.81 in1009.5 mb 0.00 in0.0 mm 0.00 in/hr0.0 mm/hr 0.00 in0.0 mm
12:45 PM 80.5°F26.9°C 62.3°F16.8°C 54% 6.0 mph S9.7 kmh S 11.0 mph17.7 kmh 29.80 in1009.1 mb 0.00 in0.0 mm 0.00 in/hr0.0 mm/hr 0.00 in0.0 mm
01:00 PM 81.3°F27.4°C 62.0°F16.7°C 52% 7.0 mph S11.3 kmh S 12.0 mph19.3 kmh 29.79 in1008.8 mb 0.00 in0.0 mm 0.00 in/hr0.0 mm/hr 0.00 in0.0 mm
01:15 PM 82.1°F27.8°C 58.0°F14.4°C 44% 7.0 mph SSE11.3 kmh SSE 15.0 mph24.1 kmh 29.79 in1008.8 mb 0.00 in0.0 mm 0.00 in/hr0.0 mm/hr 0.00 in0.0 mm
01:30 PM 82.9°F28.3°C 59.4°F15.2°C 45% 5.0 mph SSE8.0 kmh SSE 12.0 mph19.3 kmh 29.78 in1008.5 mb 0.00 in0.0 mm 0.00 in/hr0.0 mm/hr 0.00 in0.0 mm
01:45 PM 83.3°F28.5°C 57.8°F14.3°C 42% 6.0 mph SSE9.7 kmh SSE 12.0 mph19.3 kmh 29.77 in1008.1 mb 0.00 in0.0 mm 0.00 in/hr0.0 mm/hr 0.00 in0.0 mm
02:00 PM 83.7°F28.7°C 56.8°F13.8°C 40% 6.0 mph S9.7 kmh S 12.0 mph19.3 kmh 29.76 in1007.8 mb 0.00 in0.0 mm 0.00 in/hr0.0 mm/hr 0.00 in0.0 mm
02:15 PM 84.3°F29.1°C 57.3°F14.1°C 40% 6.0 mph SSE9.7 kmh SSE 14.0 mph22.5 kmh 29.76 in1007.8 mb 0.00 in0.0 mm 0.00 in/hr0.0 mm/hr 0.00 in0.0 mm
02:30 PM 84.3°F29.1°C 57.3°F14.1°C 40% 6.0 mph S9.7 kmh S 14.0 mph22.5 kmh 29.76 in1007.8 mb 0.00 in0.0 mm 0.00 in/hr0.0 mm/hr 0.00 in0.0 mm
02:45 PM 84.9°F29.4°C 61.2°F16.2°C 45% 5.0 mph SSE8.0 kmh SSE 13.0 mph20.9 kmh 29.75 in1007.5 mb 0.00 in0.0 mm 0.00 in/hr0.0 mm/hr 0.00 in0.0 mm
03:00 PM 85.1°F29.5°C 59.4°F15.2°C 42% 5.0 mph SE8.0 kmh SE 13.0 mph20.9 kmh 29.75 in1007.5 mb 0.00 in0.0 mm 0.00 in/hr0.0 mm/hr 0.00 in0.0 mm
03:15 PM 85.3°F29.6°C 60.9°F16.1°C 44% 5.0 mph SSE8.0 kmh SSE 9.0 mph14.5 kmh 29.74 in1007.1 mb 0.00 in0.0 mm 0.00 in/hr0.0 mm/hr 0.00 in0.0 mm
03:30 PM 85.1°F29.5°C 59.4°F15.2°C 42% 6.0 mph SSE9.7 kmh SSE 17.0 mph27.4 kmh 29.74 in1007.1 mb 0.00 in0.0 mm 0.00 in/hr0.0 mm/hr 0.00 in0.0 mm
03:45 PM 85.4°F29.7°C 59.0°F15.0°C 41% 5.0 mph SSE8.0 kmh SSE 11.0 mph17.7 kmh 29.72 in1006.4 mb 0.00 in0.0 mm 0.00 in/hr0.0 mm/hr 0.00 in0.0 mm
04:00 PM 85.2°F29.6°C 59.5°F15.3°C 42% 6.0 mph SE9.7 kmh SE 16.0 mph25.7 kmh 29.71 in1006.1 mb 0.00 in0.0 mm 0.00 in/hr0.0 mm/hr 0.00 in0.0 mm
04:15 PM 85.6°F29.8°C 59.2°F15.1°C 41% 5.0 mph S8.0 kmh S 14.0 mph22.5 kmh 29.70 in1005.8 mb 0.00 in0.0 mm 0.00 in/hr0.0 mm/hr 0.00 in0.0 mm
04:30 PM 85.4°F29.7°C 58.3°F14.6°C 40% 6.0 mph S9.7 kmh S 10.0 mph16.1 kmh 29.70 in1005.8 mb 0.00 in0.0 mm 0.00 in/hr0.0 mm/hr 0.00 in0.0 mm
04:45 PM 85.4°F29.7°C 59.0°F15.0°C 41% 5.0 mph S8.0 kmh S 14.0 mph22.5 kmh 29.69 in1005.4 mb 0.00 in0.0 mm 0.00 in/hr0.0 mm/hr 0.00 in0.0 mm
05:00 PM 85.1°F29.5°C 60.1°F15.6°C 43% 6.0 mph SSE9.7 kmh SSE 12.0 mph19.3 kmh 29.68 in1005.1 mb 0.00 in0.0 mm 0.00 in/hr0.0 mm/hr 0.00 in0.0 mm
05:15 PM 85.2°F29.6°C 58.2°F14.6°C 40% 5.0 mph SSE8.0 kmh SSE 22.0 mph35.4 kmh 29.67 in1004.7 mb 0.00 in0.0 mm 0.00 in/hr0.0 mm/hr 0.00 in0.0 mm
05:30 PM 84.5°F29.2°C 58.2°F14.6°C 41% 7.0 mph SSE11.3 kmh SSE 17.0 mph27.4 kmh 29.65 in1004.1 mb 0.00 in0.0 mm 0.00 in/hr0.0 mm/hr 0.00 in0.0 mm
05:45 PM 83.9°F28.8°C 58.3°F14.6°C 42% 6.0 mph SE9.7 kmh SE 18.0 mph29.0 kmh 29.65 in1004.1 mb 0.00 in0.0 mm 0.00 in/hr0.0 mm/hr 0.00 in0.0 mm
06:00 PM 84.0°F28.9°C 59.7°F15.4°C 44% 7.0 mph SSE11.3 kmh SSE 14.0 mph22.5 kmh 29.65 in1004.1 mb 0.00 in0.0 mm 0.00 in/hr0.0 mm/hr 0.00 in0.0 mm
06:15 PM 83.6°F28.7°C 60.0°F15.6°C 45% 7.0 mph SE11.3 kmh SE 15.0 mph24.1 kmh 29.64 in1003.7 mb 0.00 in0.0 mm 0.00 in/hr0.0 mm/hr 0.00 in0.0 mm
06:30 PM 82.1°F27.8°C 59.3°F15.2°C 46% 6.0 mph SE9.7 kmh SE 16.0 mph25.7 kmh 29.64 in1003.7 mb 0.00 in0.0 mm 0.00 in/hr0.0 mm/hr 0.00 in0.0 mm
06:45 PM 82.9°F28.3°C 60.0°F15.6°C 46% 5.0 mph SE8.0 kmh SE 13.0 mph20.9 kmh 29.62 in1003.0 mb 0.00 in0.0 mm 0.00 in/hr0.0 mm/hr 0.00 in0.0 mm
07:00 PM 81.6°F27.6°C 59.4°F15.2°C 47% 7.0 mph SE11.3 kmh SE 17.0 mph27.4 kmh 29.62 in1003.0 mb 0.00 in0.0 mm 0.00 in/hr0.0 mm/hr 0.00 in0.0 mm
07:15 PM 80.4°F26.9°C 59.5°F15.3°C 49% 7.0 mph SE11.3 kmh SE 15.0 mph24.1 kmh 29.61 in1002.7 mb 0.00 in0.0 mm 0.00 in/hr0.0 mm/hr 0.00 in0.0 mm
07:30 PM 79.7°F26.5°C 58.8°F14.9°C 49% 6.0 mph SE9.7 kmh SE 11.0 mph17.7 kmh 29.62 in1003.0 mb 0.00 in0.0 mm 0.00 in/hr0.0 mm/hr 0.00 in0.0 mm
07:45 PM 79.2°F26.2°C 59.0°F15.0°C 50% 5.0 mph SE8.0 kmh SE 8.0 mph12.9 kmh 29.63 in1003.4 mb 0.00 in0.0 mm 0.00 in/hr0.0 mm/hr 0.00 in0.0 mm
08:00 PM 78.6°F25.9°C 59.0°F15.0°C 51% 5.0 mph SE8.0 kmh SE 9.0 mph14.5 kmh 29.63 in1003.4 mb 0.00 in0.0 mm 0.00 in/hr0.0 mm/hr 0.00 in0.0 mm
08:15 PM 78.2°F25.7°C 58.6°F14.8°C 51% 5.0 mph SE8.0 kmh SE 13.0 mph20.9 kmh 29.65 in1004.1 mb 0.00 in0.0 mm 0.00 in/hr0.0 mm/hr 0.00 in0.0 mm
08:30 PM 77.6°F25.3°C 58.6°F14.8°C 52% 4.0 mph SE6.4 kmh SE 8.0 mph12.9 kmh 29.65 in1004.1 mb 0.00 in0.0 mm 0.00 in/hr0.0 mm/hr 0.00 in0.0 mm
08:45 PM 77.3°F25.2°C 58.8°F14.9°C 53% 5.0 mph SE8.0 kmh SE 12.0 mph19.3 kmh 29.65 in1004.1 mb 0.00 in0.0 mm 0.00 in/hr0.0 mm/hr 0.00 in0.0 mm
09:00 PM 76.7°F24.8°C 58.8°F14.9°C 54% 4.0 mph SE6.4 kmh SE 11.0 mph17.7 kmh 29.65 in1004.1 mb 0.00 in0.0 mm 0.00 in/hr0.0 mm/hr 0.00 in0.0 mm
09:15 PM 76.7°F24.8°C 58.3°F14.6°C 53% 5.0 mph SE8.0 kmh SE 10.0 mph16.1 kmh 29.66 in1004.4 mb 0.00 in0.0 mm 0.00 in/hr0.0 mm/hr 0.00 in0.0 mm
09:30 PM 76.7°F24.8°C 58.8°F14.9°C 54% 3.0 mph SE4.8 kmh SE 7.0 mph11.3 kmh 29.71 in1006.1 mb 0.00 in0.0 mm 0.00 in/hr0.0 mm/hr 0.00 in0.0 mm
09:45 PM 76.4°F24.7°C 59.0°F15.0°C 55% 2.0 mph SE3.2 kmh SE 4.0 mph6.4 kmh 29.71 in1006.1 mb 0.00 in0.0 mm 0.00 in/hr0.0 mm/hr 0.00 in0.0 mm
10:00 PM 76.2°F24.6°C 59.4°F15.2°C 56% 3.0 mph SE4.8 kmh SE 7.0 mph11.3 kmh 29.72 in1006.4 mb 0.00 in0.0 mm 0.00 in/hr0.0 mm/hr 0.00 in0.0 mm
10:15 PM 76.2°F24.6°C 59.9°F15.5°C 57% 3.0 mph SSE4.8 kmh SSE 4.0 mph6.4 kmh 29.73 in1006.8 mb 0.00 in0.0 mm 0.00 in/hr0.0 mm/hr 0.00 in0.0 mm
10:30 PM 75.7°F24.3°C 61.3°F16.3°C 61% Calm Calm 1.0 mph1.6 kmh 29.75 in1007.5 mb 0.00 in0.0 mm 0.00 in/hr0.0 mm/hr 0.00 in0.0 mm
10:45 PM 71.7°F22.1°C 62.6°F17.0°C 73% 3.0 mph E4.8 kmh E 10.0 mph16.1 kmh 29.70 in1005.8 mb 0.04 in1.0 mm 0.16 in/hr4.1 mm/hr 0.04 in1.0 mm
11:00 PM 71.5°F21.9°C 61.6°F16.4°C 71% 5.0 mph SE8.0 kmh SE 14.0 mph22.5 kmh 29.69 in1005.4 mb 0.04 in1.0 mm 0.00 in/hr0.0 mm/hr 0.04 in1.0 mm
11:15 PM 72.0°F22.2°C 60.9°F16.1°C 68% 5.0 mph SE8.0 kmh SE 10.0 mph16.1 kmh 29.67 in1004.7 mb 0.04 in1.0 mm 0.00 in/hr0.0 mm/hr 0.04 in1.0 mm
11:30 PM 72.9°F22.7°C 60.4°F15.8°C 65% 7.0 mph SE11.3 kmh SE 15.0 mph24.1 kmh 29.70 in1005.8 mb 0.04 in1.0 mm 0.00 in/hr0.0 mm/hr 0.04 in1.0 mm
11:45 PM 72.9°F22.7°C 60.9°F16.1°C 66% 5.0 mph SE8.0 kmh SE 13.0 mph20.9 kmh 29.70 in1005.8 mb 0.00 in0.0 mm 0.00 in/hr0.0 mm/hr 0.04 in1.0 mm